Time;durP1;ratioP1;P1;durP2;ratioP2;P2;SDS_P1;SDS_P2;PMS_P1;PMS_P2;Temp;Humidity;BMP_temperature;BMP_pressure;BME280_temperature;BME280_humidity;BME280_pressure;Samples;Min_cycle;Max_cycle;Signal;HPM_P1;HPM_P2
2022/02/05 00:01:21;;;;;;;;;;;;;;;20.67;29.58;99889.50;5065179;22;3540;-77
2022/02/05 00:03:54;;;;;;;;;;;;;;;21.55;29.13;99887.53;5031063;28;1010;-75
2022/02/05 00:06:27;;;;;;;;;;;;;;;21.17;29.54;99882.72;5030837;28;1058;-74
2022/02/05 00:09:02;;;;;;;;;;;;;;;20.96;29.21;99892.91;5014350;28;1910;-76
2022/02/05 00:11:57;;;;;;;;;;;;;;;20.31;29.57;99895.38;5032111;28;1319;-75
2022/02/05 00:20:29;;;;;;;;;;;;;;;21.25;28.85;99910.09;5014249;28;879;-76
2022/02/05 00:39:45;;;;;;;;;;;;;;;21.68;28.78;99973.09;5030686;28;1504;-77
2022/02/05 00:42:27;;;;;;;;;;;;;;;21.31;29.14;99969.09;4993555;28;1408;-77
2022/02/05 00:44:53;;;;;;;;;;;;;;;22.44;27.87;99976.22;4993861;28;1058;-77
2022/02/05 00:47:19;;;;;;;;;;;;;;;22.59;27.58;99992.50;5011615;28;979;-75
2022/02/05 00:49:50;;;;;;;;;;;;;;;21.79;28.90;99996.41;4993771;28;1969;-75
2022/02/05 00:52:18;;;;;;;;;;;;;;;22.38;27.47;99996.44;4993799;28;1324;-76
2022/02/05 00:54:50;;;;;;;;;;;;;;;21.35;29.13;100004.34;4977233;28;1046;-74
2022/02/05 00:57:32;;;;;;;;;;;;;;;21.26;29.04;100004.75;5011380;28;1088;-75
2022/02/05 00:59:59;;;;;;;;;;;;;;;22.48;27.61;99998.75;4993631;28;1054;-76
2022/02/05 01:02:25;;;;;;;;;;;;;;;22.24;28.00;99999.25;5011103;28;1277;-78
2022/02/05 01:04:51;;;;;;;;;;;;;;;21.21;28.67;99997.97;5010927;28;978;-77
2022/02/05 01:07:17;;;;;;;;;;;;;;;22.01;28.02;100012.75;4993763;28;1019;-76
2022/02/05 01:09:47;;;;;;;;;;;;;;;21.23;29.13;100020.69;4993622;28;1914;-76
2022/02/05 01:12:14;;;;;;;;;;;;;;;21.85;27.94;100023.19;4993313;28;1444;-74
2022/02/05 01:14:47;;;;;;;;;;;;;;;21.71;28.45;100029.78;5010952;28;936;-76
2022/02/05 01:17:15;;;;;;;;;;;;;;;22.71;27.31;100023.09;5011083;28;1030;-76
2022/02/05 01:20:10;;;;;;;;;;;;;;;22.14;27.82;100025.66;4993290;28;999;-77
2022/02/05 01:22:39;;;;;;;;;;;;;;;22.15;28.29;100033.72;4993152;28;1480;-77
2022/02/05 01:25:07;;;;;;;;;;;;;;;20.31;30.30;100019.38;5010971;28;673;-77
2022/02/05 01:27:40;;;;;;;;;;;;;;;22.83;27.36;100037.06;4995427;28;793;-77
2022/02/05 01:30:19;;;;;;;;;;;;;;;21.83;28.32;100047.44;5014501;28;1915;-77
2022/02/05 01:32:54;;;;;;;;;;;;;;;22.87;26.99;100049.38;5014470;28;1448;-77
2022/02/05 01:35:29;;;;;;;;;;;;;;;22.78;27.38;100048.78;4996731;28;864;-77
2022/02/05 01:49:14;;;;;;;;;;;;;;;22.56;27.28;100071.22;5014381;28;1019;-77
2022/02/05 01:55:01;;;;;;;;;;;;;;;22.37;27.70;100064.72;5014277;28;1094;-76
2022/02/05 01:57:43;;;;;;;;;;;;;;;23.13;26.41;100073.31;4980663;28;1320;-77
2022/02/05 02:05:38;;;;;;;;;;;;;;;22.27;28.08;100074.53;5013977;28;990;-77
2022/02/05 02:11:14;;;;;;;;;;;;;;;23.27;26.98;100093.41;5013759;28;1914;-75
2022/02/05 02:14:13;;;;;;;;;;;;;;;23.15;27.12;100098.81;5013725;28;1026;-75
2022/02/05 02:17:03;;;;;;;;;;;;;;;22.19;28.16;100104.09;5013429;28;1059;-76
2022/02/05 02:19:36;;;;;;;;;;;;;;;22.00;28.51;100110.50;5013476;28;975;-76
2022/02/05 02:22:10;;;;;;;;;;;;;;;22.43;28.31;100095.34;5013695;28;1412;-75
2022/02/05 02:24:47;;;;;;;;;;;;;;;21.99;27.96;100103.28;5013224;28;1149;-77
2022/02/05 02:27:23;;;;;;;;;;;;;;;21.86;27.93;100106.91;5013424;28;967;-77
2022/02/05 02:30:00;;;;;;;;;;;;;;;22.27;28.49;100108.53;5013216;28;1972;-75
2022/02/05 02:32:27;;;;;;;;;;;;;;;22.86;27.20;100095.56;4995667;28;1356;-76
2022/02/05 02:34:59;;;;;;;;;;;;;;;22.45;27.16;100107.00;5013012;28;932;-77
2022/02/05 02:37:32;;;;;;;;;;;;;;;19.97;28.96;100101.84;4994402;28;1493;-75
2022/02/05 02:40:06;;;;;;;;;;;;;;;21.91;28.04;100118.16;4998994;28;1026;-75
2022/02/05 02:42:35;;;;;;;;;;;;;;;23.03;26.83;100117.19;5015173;28;1378;-76
2022/02/05 02:45:01;;;;;;;;;;;;;;;22.85;27.30;100129.84;5032618;28;816;-77
2022/02/05 02:47:28;;;;;;;;;;;;;;;22.38;27.27;100138.31;5015223;28;1106;-76
2022/02/05 02:49:59;;;;;;;;;;;;;;;22.10;28.17;100135.78;5032708;28;1979;-76
2022/02/05 02:57:57;;;;;;;;;;;;;;;21.68;28.19;100152.59;5015022;28;1035;-75
2022/02/05 03:00:25;;;;;;;;;;;;;;;23.01;26.23;100160.81;5032589;28;980;-76
2022/02/05 03:02:51;;;;;;;;;;;;;;;22.45;26.97;100152.13;5032299;28;1348;-76
2022/02/05 03:05:18;;;;;;;;;;;;;;;21.95;27.78;100169.16;5032351;28;848;-76
2022/02/05 03:07:45;;;;;;;;;;;;;;;22.44;27.51;100167.00;5032720;28;1062;-75
2022/02/05 03:10:12;;;;;;;;;;;;;;;23.70;25.69;100161.06;5032560;28;1979;-76
2022/02/05 03:12:38;;;;;;;;;;;;;;;21.70;28.19;100163.41;5014633;28;1272;-75
2022/02/05 03:15:06;;;;;;;;;;;;;;;22.65;26.65;100167.78;5032305;28;967;-76
2022/02/05 03:17:39;;;;;;;;;;;;;;;23.32;26.56;100164.75;5014663;28;1098;-75
2022/02/05 03:20:06;;;;;;;;;;;;;;;22.18;27.50;100174.25;5014589;28;1015;-75
2022/02/05 03:22:32;;;;;;;;;;;;;;;22.99;26.31;100171.28;5032384;28;1358;-76
2022/02/05 03:25:00;;;;;;;;;;;;;;;24.47;25.10;100171.06;5014023;28;1152;-76
2022/02/05 03:27:27;;;;;;;;;;;;;;;23.26;26.36;100165.63;5032389;28;1102;-78
2022/02/05 03:29:53;;;;;;;;;;;;;;;23.22;26.14;100163.31;5032624;28;1973;-76
2022/02/05 03:32:21;;;;;;;;;;;;;;;23.59;25.67;100159.88;5014577;28;1396;-75
2022/02/05 03:34:48;;;;;;;;;;;;;;;22.43;26.93;100159.75;5031873;28;1038;-74
2022/02/05 03:37:15;;;;;;;;;;;;;;;22.90;26.38;100163.22;5014442;28;956;-76
2022/02/05 03:39:42;;;;;;;;;;;;;;;22.30;27.37;100168.94;5031858;28;983;-76
2022/02/05 03:42:09;;;;;;;;;;;;;;;21.95;27.15;100166.41;5031881;28;1387;-75
2022/02/05 03:44:36;;;;;;;;;;;;;;;21.63;27.62;100174.47;5032449;28;942;-77
2022/02/05 03:47:02;;;;;;;;;;;;;;;21.85;26.95;100175.13;5031765;28;784;-76
2022/02/05 03:49:28;;;;;;;;;;;;;;;23.08;25.76;100181.88;5032383;28;1027;-76
2022/02/05 03:51:55;;;;;;;;;;;;;;;22.69;26.11;100196.72;5014413;28;1915;-75
2022/02/05 03:54:24;;;;;;;;;;;;;;;22.38;26.97;100188.06;5031712;28;1006;-76
2022/02/05 03:56:50;;;;;;;;;;;;;;;22.20;26.88;100187.84;5014265;28;789;-75
2022/02/05 03:59:18;;;;;;;;;;;;;;;22.74;26.26;100180.31;5014303;28;962;-75
2022/02/05 04:01:44;;;;;;;;;;;;;;;23.11;26.24;100188.88;5031683;28;1385;-76
2022/02/05 04:04:11;;;;;;;;;;;;;;;23.25;26.05;100198.00;5013893;28;990;-75
2022/02/05 04:06:37;;;;;;;;;;;;;;;22.13;27.08;100195.28;4997974;28;1292;-76
2022/02/05 04:09:07;;;;;;;;;;;;;;;22.17;26.73;100193.81;5031726;28;1031;-76
2022/02/05 04:11:37;;;;;;;;;;;;;;;21.50;28.00;100194.59;5013785;28;1914;-75
2022/02/05 04:16:49;;;;;;;;;;;;;;;22.20;27.06;100201.66;5032155;28;1086;-74
2022/02/05 04:19:16;;;;;;;;;;;;;;;21.17;27.65;100205.56;5031456;28;826;-74
2022/02/05 04:21:42;;;;;;;;;;;;;;;21.94;27.54;100213.56;5031474;28;1412;-73
2022/02/05 04:24:09;;;;;;;;;;;;;;;21.69;27.61;100223.34;5013534;28;848;-75
2022/02/05 04:26:35;;;;;;;;;;;;;;;22.74;26.52;100224.56;5031432;28;896;-76
2022/02/05 04:29:02;;;;;;;;;;;;;;;23.67;25.90;100228.00;5013946;28;1057;-75
2022/02/05 04:31:28;;;;;;;;;;;;;;;22.53;26.45;100234.84;5031273;28;1911;-75
2022/02/05 04:33:56;;;;;;;;;;;;;;;24.24;25.12;100228.84;5030748;28;1499;-75
2022/02/05 04:36:22;;;;;;;;;;;;;;;22.52;26.53;100233.13;5013354;28;1086;-74
2022/02/05 04:38:50;;;;;;;;;;;;;;;22.34;26.86;100236.53;5031346;28;971;-75
2022/02/05 04:41:20;;;;;;;;;;;;;;;22.71;26.67;100230.53;5031126;28;1293;-76
2022/02/05 04:44:01;;;;;;;;;;;;;;;22.22;26.69;100236.34;5013597;28;1154;-76
2022/02/05 04:47:00;;;;;;;;;;;;;;;22.79;26.36;100232.22;5013567;28;837;-76
2022/02/05 04:50:04;;;;;;;;;;;;;;;23.34;25.13;100240.97;5031327;28;911;-74
2022/02/05 04:55:46;;;;;;;;;;;;;;;22.49;26.36;100241.88;4978400;28;1041;-77
2022/02/05 04:58:31;;;;;;;;;;;;;;;22.29;27.13;100243.75;5031736;28;944;-76
2022/02/05 05:01:06;;;;;;;;;;;;;;;21.41;27.66;100234.50;5032102;28;1371;-77
2022/02/05 05:03:49;;;;;;;;;;;;;;;21.69;27.15;100234.38;5035286;28;959;-75
2022/02/05 05:06:46;;;;;;;;;;;;;;;22.87;26.12;100246.66;5035411;28;876;-77
2022/02/05 05:09:19;;;;;;;;;;;;;;;21.11;28.24;100245.00;5035132;28;916;-76
2022/02/05 05:12:15;;;;;;;;;;;;;;;23.02;26.29;100249.19;5017619;28;1894;-76
2022/02/05 05:20:10;;;;;;;;;;;;;;;22.46;26.61;100258.03;5034641;28;1042;-77
2022/02/05 05:22:38;;;;;;;;;;;;;;;22.26;26.84;100261.66;5016774;28;1392;-76
2022/02/05 05:25:04;;;;;;;;;;;;;;;23.11;26.09;100268.31;5016401;28;1313;-77
2022/02/05 05:27:32;;;;;;;;;;;;;;;23.92;25.13;100271.53;5034585;28;968;-77
2022/02/05 05:29:59;;;;;;;;;;;;;;;22.44;26.31;100268.47;5009008;28;1471;-76
2022/02/05 05:32:25;;;;;;;;;;;;;;;22.03;26.62;100268.44;5036450;28;1983;-76
2022/02/05 05:34:51;;;;;;;;;;;;;;;23.42;25.45;100270.31;5049637;28;1334;-74
2022/02/05 05:37:20;;;;;;;;;;;;;;;21.68;27.32;100264.97;5016189;28;1467;-75
2022/02/05 05:39:49;;;;;;;;;;;;;;;22.68;26.98;100275.22;5053929;28;983;-75
2022/02/05 05:42:20;;;;;;;;;;;;;;;22.50;27.15;100275.88;5012019;28;1463;-75
2022/02/05 05:45:22;;;;;;;;;;;;;;;23.03;26.50;100283.22;5016981;28;975;-76
2022/02/05 05:47:55;;;;;;;;;;;;;;;21.43;27.37;100265.50;5016303;28;1334;-75
2022/02/05 05:53:03;;;;;;;;;;;;;;;22.35;26.52;100281.66;5024759;28;1518;-75
2022/02/05 05:55:30;;;;;;;;;;;;;;;23.72;24.79;100284.44;5033227;28;1471;-76
2022/02/05 05:57:57;;;;;;;;;;;;;;;22.76;25.97;100286.06;5033447;28;982;-74
2022/02/05 06:00:23;;;;;;;;;;;;;;;22.40;26.50;100281.84;5033084;28;1526;-77
2022/02/05 06:02:49;;;;;;;;;;;;;;;21.74;26.94;100291.78;5016858;28;1573;-78
2022/02/05 06:05:16;;;;;;;;;;;;;;;21.19;27.77;100294.50;5035047;28;1523;-78
2022/02/05 06:07:42;;;;;;;;;;;;;;;22.48;26.74;100298.22;5035220;28;1102;-81
2022/02/05 06:10:09;;;;;;;;;;;;;;;23.37;25.19;100307.00;5033495;28;987;-79
2022/02/05 06:12:36;;;;;;;;;;;;;;;22.06;25.81;100289.25;5014979;28;1910;-78
2022/02/05 06:15:06;;;;;;;;;;;;;;;22.88;25.88;100295.41;5032822;28;818;-79
2022/02/05 06:17:32;;;;;;;;;;;;;;;22.93;25.17;100294.75;5033533;28;967;-78
2022/02/05 06:19:59;;;;;;;;;;;;;;;22.06;26.67;100294.78;5033205;28;1160;-79
2022/02/05 06:22:25;;;;;;;;;;;;;;;21.53;27.24;100303.78;5032568;28;1451;-79
2022/02/05 06:24:51;;;;;;;;;;;;;;;21.67;26.74;100297.28;5031385;28;1247;-80
2022/02/05 06:27:18;;;;;;;;;;;;;;;22.38;25.78;100300.56;5032685;28;1181;-79
2022/02/05 06:29:45;;;;;;;;;;;;;;;21.17;27.37;100311.25;5032001;28;1272;-77
2022/02/05 06:32:15;;;;;;;;;;;;;;;22.03;26.41;100306.25;5030321;28;1981;-78
2022/02/05 06:34:41;;;;;;;;;;;;;;;23.06;25.28;100313.22;5032741;28;936;-76
2022/02/05 06:37:08;;;;;;;;;;;;;;;22.52;26.28;100324.38;5032166;28;1490;-76
2022/02/05 06:39:34;;;;;;;;;;;;;;;21.66;25.94;100328.72;4997583;28;1164;-76
2022/02/05 06:42:00;;;;;;;;;;;;;;;22.53;26.09;100342.69;5030908;28;1569;-79
2022/02/05 06:44:26;;;;;;;;;;;;;;;22.00;26.49;100350.91;5012216;28;1503;-77
2022/02/05 06:46:54;;;;;;;;;;;;;;;21.84;27.40;100358.50;5028098;28;1346;-78
2022/02/05 06:49:25;;;;;;;;;;;;;;;21.35;27.62;100365.94;5030995;28;793;-75
2022/02/05 06:51:51;;;;;;;;;;;;;;;21.49;28.24;100374.28;5013380;28;1918;-78
2022/02/05 06:54:17;;;;;;;;;;;;;;;21.81;27.69;100375.50;5030217;28;1073;-77
2022/02/05 06:56:44;;;;;;;;;;;;;;;21.70;28.14;100381.59;5028812;28;1481;-77
2022/02/05 06:59:10;;;;;;;;;;;;;;;22.68;26.16;100374.81;5031369;28;1034;-78
2022/02/05 07:01:36;;;;;;;;;;;;;;;20.67;29.30;100385.81;5030756;28;1537;-78
2022/02/05 07:04:05;;;;;;;;;;;;;;;22.35;27.12;100376.47;5030262;28;1126;-75
2022/02/05 07:06:31;;;;;;;;;;;;;;;22.39;26.85;100382.44;5012122;28;1347;-76
2022/02/05 07:08:58;;;;;;;;;;;;;;;22.06;28.00;100394.25;5028718;28;975;-77
2022/02/05 07:11:24;;;;;;;;;;;;;;;22.04;27.39;100382.56;5030553;28;1919;-77
2022/02/05 07:13:53;;;;;;;;;;;;;;;21.09;28.55;100396.97;5030743;28;904;-78
2022/02/05 07:16:24;;;;;;;;;;;;;;;22.47;27.43;100393.28;5026990;28;1453;-76
2022/02/05 07:19:01;;;;;;;;;;;;;;;22.15;27.41;100403.22;5012783;28;1507;-76
2022/02/05 07:21:34;;;;;;;;;;;;;;;22.01;26.80;100394.06;5029874;28;1463;-76
2022/02/05 07:29:37;;;;;;;;;;;;;;;23.09;26.16;100415.22;5029775;28;1451;-75
2022/02/05 07:32:03;;;;;;;;;;;;;;;22.10;27.69;100427.84;5044589;28;1914;-76
2022/02/05 07:34:30;;;;;;;;;;;;;;;21.27;28.65;100412.16;5050628;28;789;-77
2022/02/05 07:37:01;;;;;;;;;;;;;;;22.95;26.40;100416.28;5016858;28;1525;-76
2022/02/05 07:39:28;;;;;;;;;;;;;;;22.27;26.22;100417.28;5031796;28;1007;-75
2022/02/05 07:41:54;;;;;;;;;;;;;;;22.71;25.94;100422.25;5013657;28;1619;-78
2022/02/05 07:44:21;;;;;;;;;;;;;;;21.95;27.44;100426.09;5031868;28;883;-75
2022/02/05 07:46:50;;;;;;;;;;;;;;;22.79;26.61;100436.94;5013873;28;1542;-77
2022/02/05 07:49:17;;;;;;;;;;;;;;;22.84;26.02;100440.78;5033023;28;1514;-76
2022/02/05 07:51:43;;;;;;;;;;;;;;;21.26;27.80;100444.44;5013184;28;1914;-79
2022/02/05 07:54:11;;;;;;;;;;;;;;;20.30;28.74;100450.34;5014310;28;828;-77
2022/02/05 07:56:38;;;;;;;;;;;;;;;23.50;25.58;100444.53;5031280;28;1558;-77
2022/02/05 07:59:04;;;;;;;;;;;;;;;23.64;25.48;100441.75;5029950;28;886;-78
2022/02/05 08:01:30;;;;;;;;;;;;;;;24.15;24.30;100445.63;5011950;28;1366;-76
2022/02/05 08:03:57;;;;;;;;;;;;;;;22.31;26.97;100451.72;5012156;28;1023;-75
2022/02/05 08:06:23;;;;;;;;;;;;;;;23.02;25.69;100451.22;5029875;28;851;-77
2022/02/05 08:08:53;;;;;;;;;;;;;;;23.27;25.50;100466.34;5029595;28;991;-78
2022/02/05 08:11:24;;;;;;;;;;;;;;;20.87;27.68;100457.72;5012030;28;1907;-77
2022/02/05 08:13:51;;;;;;;;;;;;;;;21.17;27.22;100463.03;5011940;28;837;-77
2022/02/05 08:16:32;;;;;;;;;;;;;;;22.47;26.51;100470.72;5013002;28;1003;-76
2022/02/05 08:18:58;;;;;;;;;;;;;;;22.62;26.08;100475.22;5013410;28;988;-77
2022/02/05 08:21:24;;;;;;;;;;;;;;;22.81;25.67;100473.53;5030925;28;1267;-76
2022/02/05 08:23:51;;;;;;;;;;;;;;;21.84;27.25;100485.56;5013410;28;963;-75
2022/02/05 08:26:17;;;;;;;;;;;;;;;22.38;26.36;100472.84;5031246;28;1046;-79
2022/02/05 08:28:45;;;;;;;;;;;;;;;22.93;25.79;100473.75;5015293;28;992;-78
2022/02/05 08:31:12;;;;;;;;;;;;;;;23.33;25.14;100485.72;5041008;28;1299;-78
2022/02/05 08:33:42;;;;;;;;;;;;;;;23.07;25.52;100487.38;5032249;28;1910;-77
2022/02/05 08:36:08;;;;;;;;;;;;;;;22.62;26.47;100492.69;5030306;28;789;-76
2022/02/05 08:38:35;;;;;;;;;;;;;;;22.11;27.11;100501.41;5012932;28;1260;-76
2022/02/05 08:41:01;;;;;;;;;;;;;;;22.39;26.05;100493.03;5039470;28;1340;-77
2022/02/05 08:43:30;;;;;;;;;;;;;;;21.86;27.25;100497.28;5050464;28;819;-74
2022/02/05 08:45:58;;;;;;;;;;;;;;;22.66;26.37;100495.88;5032528;28;1027;-77
2022/02/05 08:48:24;;;;;;;;;;;;;;;24.38;25.17;100498.59;5022799;28;1526;-75
2022/02/05 08:50:50;;;;;;;;;;;;;;;21.57;27.35;100512.19;5030874;28;792;-76
2022/02/05 08:53:20;;;;;;;;;;;;;;;20.98;28.45;100508.75;5030434;28;1981;-76
2022/02/05 08:55:46;;;;;;;;;;;;;;;21.84;26.93;100507.66;5030277;28;865;-76
2022/02/05 08:58:14;;;;;;;;;;;;;;;22.13;26.83;100513.09;5031225;28;974;-79
2022/02/05 09:00:47;;;;;;;;;;;;;;;22.07;26.79;100523.09;5033980;28;1079;-80
2022/02/05 09:03:24;;;;;;;;;;;;;;;22.11;26.64;100521.59;5014890;28;1467;-76
2022/02/05 09:05:51;;;;;;;;;;;;;;;22.33;26.88;100527.03;5030391;28;1011;-75
2022/02/05 09:08:25;;;;;;;;;;;;;;;24.28;24.20;100538.97;5030354;28;1483;-75
2022/02/05 09:10:59;;;;;;;;;;;;;;;23.49;25.16;100522.31;5030663;28;1035;-77
2022/02/05 09:13:39;;;;;;;;;;;;;;;22.69;26.19;100545.25;5029676;28;1977;-74
2022/02/05 09:16:06;;;;;;;;;;;;;;;23.65;24.80;100538.50;5029770;28;1470;-77
2022/02/05 09:18:34;;;;;;;;;;;;;;;23.12;25.51;100552.34;5030533;28;988;-75
2022/02/05 09:21:01;;;;;;;;;;;;;;;23.96;24.11;100547.19;5012871;28;1323;-76
2022/02/05 09:23:27;;;;;;;;;;;;;;;22.22;26.69;100554.22;5030673;28;764;-78
2022/02/05 09:25:53;;;;;;;;;;;;;;;23.66;24.69;100550.41;5030223;28;928;-76
2022/02/05 09:28:21;;;;;;;;;;;;;;;23.31;25.02;100545.97;5030655;28;809;-78
2022/02/05 09:30:50;;;;;;;;;;;;;;;22.12;25.72;100556.47;5032409;28;1689;-77
2022/02/05 09:33:17;;;;;;;;;;;;;;;22.29;25.75;100547.84;5032708;28;1981;-76
2022/02/05 09:35:45;;;;;;;;;;;;;;;25.17;23.41;100559.38;5050263;28;793;-76
2022/02/05 09:38:11;;;;;;;;;;;;;;;24.76;23.33;100570.97;5032717;28;716;-76
2022/02/05 09:40:38;;;;;;;;;;;;;;;23.98;24.29;100570.84;5050584;28;915;-78
2022/02/05 09:43:04;;;;;;;;;;;;;;;25.19;23.33;100578.59;5024532;28;1352;-78
2022/02/05 09:45:30;;;;;;;;;;;;;;;25.12;23.55;100573.09;5029486;28;1124;-78
2022/02/05 09:47:57;;;;;;;;;;;;;;;23.65;24.67;100570.88;5030766;28;1298;-77
2022/02/05 09:50:23;;;;;;;;;;;;;;;24.01;24.30;100570.44;5033571;28;1319;-76
2022/02/05 09:52:53;;;;;;;;;;;;;;;24.79;23.55;100584.44;5033372;28;1918;-77
2022/02/05 09:55:20;;;;;;;;;;;;;;;24.01;24.29;100588.97;5033038;28;1398;-76
2022/02/05 09:57:47;;;;;;;;;;;;;;;24.08;24.19;100598.13;5033178;28;1346;-77
2022/02/05 10:00:15;;;;;;;;;;;;;;;23.62;24.96;100602.63;5033481;28;1227;-77
2022/02/05 10:02:43;;;;;;;;;;;;;;;24.57;23.84;100607.75;5031440;28;1418;-75
2022/02/05 10:05:16;;;;;;;;;;;;;;;25.28;23.03;100623.59;5032279;28;813;-76
2022/02/05 10:07:53;;;;;;;;;;;;;;;23.83;24.56;100625.66;5034114;28;987;-79
2022/02/05 10:10:20;;;;;;;;;;;;;;;22.93;25.74;100625.94;5032744;28;1142;-77
2022/02/05 10:13:05;;;;;;;;;;;;;;;23.59;24.60;100614.16;5032666;28;1918;-77
2022/02/05 10:15:32;;;;;;;;;;;;;;;23.91;24.45;100614.38;5033315;28;919;-77
2022/02/05 10:17:58;;;;;;;;;;;;;;;24.32;23.68;100623.41;5033461;28;951;-76
2022/02/05 10:20:24;;;;;;;;;;;;;;;23.38;24.64;100626.28;5032116;28;1070;-76
2022/02/05 10:22:52;;;;;;;;;;;;;;;25.17;23.53;100631.56;5031880;28;1305;-76
2022/02/05 10:25:20;;;;;;;;;;;;;;;24.53;23.66;100634.25;5032911;28;1113;-77
2022/02/05 10:27:47;;;;;;;;;;;;;;;23.22;24.76;100633.94;5032360;28;825;-76
2022/02/05 10:30:18;;;;;;;;;;;;;;;23.23;25.07;100638.41;5033348;28;979;-77
2022/02/05 10:32:48;;;;;;;;;;;;;;;24.44;23.94;100641.13;5032940;28;1906;-74
2022/02/05 10:35:26;;;;;;;;;;;;;;;24.04;23.81;100633.75;5032887;28;920;-75
2022/02/05 10:37:57;;;;;;;;;;;;;;;23.64;24.48;100633.75;5033331;28;852;-78
2022/02/05 10:40:41;;;;;;;;;;;;;;;24.86;23.14;100644.34;5037159;28;1193;-75
2022/02/05 10:43:07;;;;;;;;;;;;;;;24.14;24.02;100643.53;5053137;28;1370;-78
2022/02/05 10:45:41;;;;;;;;;;;;;;;24.93;23.03;100647.09;5053059;28;832;-76
2022/02/05 10:48:08;;;;;;;;;;;;;;;24.67;23.20;100646.16;5065214;28;998;-78
2022/02/05 10:50:35;;;;;;;;;;;;;;;23.05;25.51;100650.06;5028204;28;1281;-77
2022/02/05 10:53:06;;;;;;;;;;;;;;;23.52;24.77;100643.78;5033311;28;1988;-77
2022/02/05 10:55:41;;;;;;;;;;;;;;;23.47;24.37;100647.16;5016465;28;1499;-78
2022/02/05 10:58:28;;;;;;;;;;;;;;;21.27;26.66;100630.19;5014792;28;1007;-77
2022/02/05 11:06:23;;;;;;;;;;;;;;;22.99;24.88;100628.75;5035778;28;991;-79
2022/02/05 11:08:50;;;;;;;;;;;;;;;23.75;23.86;100637.78;5035367;28;971;-77
2022/02/05 11:16:56;;;;;;;;;;;;;;;25.61;22.80;100647.53;5032143;28;757;-74
2022/02/05 11:19:23;;;;;;;;;;;;;;;23.05;24.80;100635.38;5014543;28;1462;-74
2022/02/05 11:21:49;;;;;;;;;;;;;;;22.87;25.02;100633.19;5051597;28;1416;-73
2022/02/05 11:24:16;;;;;;;;;;;;;;;24.47;23.55;100642.59;5052357;28;1093;-74
2022/02/05 11:26:44;;;;;;;;;;;;;;;25.38;22.48;100630.38;5041039;28;1569;-77
2022/02/05 11:29:26;;;;;;;;;;;;;;;26.44;22.32;100628.75;5034261;28;1534;-75
2022/02/05 11:31:55;;;;;;;;;;;;;;;25.28;22.57;100624.47;5032143;28;1473;-76
2022/02/05 11:34:28;;;;;;;;;;;;;;;23.24;23.72;100637.34;5033835;28;1922;-75
2022/02/05 11:37:03;;;;;;;;;;;;;;;24.62;23.25;100634.88;5039983;28;2005;-75
2022/02/05 11:39:29;;;;;;;;;;;;;;;26.54;22.04;100634.66;5031310;28;1025;-77
2022/02/05 11:42:17;;;;;;;;;;;;;;;26.10;22.50;100634.72;5014154;28;1371;-74
2022/02/05 11:44:43;;;;;;;;;;;;;;;25.52;22.02;100631.16;5032504;28;1122;-78
2022/02/05 11:47:26;;;;;;;;;;;;;;;26.44;21.11;100631.56;5032691;28;1538;-78
2022/02/05 11:50:10;;;;;;;;;;;;;;;24.71;22.80;100596.63;5033585;28;911;-78
2022/02/05 11:52:55;;;;;;;;;;;;;;;25.68;22.05;100626.09;5032574;28;1922;-77
2022/02/05 11:55:33;;;;;;;;;;;;;;;25.69;21.75;100631.41;4998862;28;1542;-76
2022/02/05 11:58:01;;;;;;;;;;;;;;;26.05;20.89;100621.47;5036321;28;899;-75
2022/02/05 12:00:32;;;;;;;;;;;;;;;27.10;19.98;100618.72;5031169;28;1487;-75
2022/02/05 12:03:00;;;;;;;;;;;;;;;25.05;21.69;100627.81;5042391;23;4101;-75
2022/02/05 12:05:31;;;;;;;;;;;;;;;25.49;21.23;100620.47;5028384;28;1529;-76
2022/02/05 12:08:01;;;;;;;;;;;;;;;25.12;21.66;100634.19;5031001;28;876;-75
2022/02/05 12:10:34;;;;;;;;;;;;;;;25.58;20.83;100637.72;5031005;28;1632;-75
2022/02/05 12:13:15;;;;;;;;;;;;;;;27.20;20.38;100634.84;5030686;28;1918;-74
2022/02/05 12:15:42;;;;;;;;;;;;;;;26.75;20.22;100638.03;5028910;28;1750;-76
2022/02/05 12:21:08;;;;;;;;;;;;;;;24.93;21.74;100649.88;5029091;28;1579;-74
2022/02/05 12:24:21;;;;;;;;;;;;;;;25.62;21.45;100650.09;5030766;28;1610;-76
2022/02/05 12:26:47;;;;;;;;;;;;;;;26.62;20.23;100644.59;5030859;28;1560;-76
2022/02/05 12:29:27;;;;;;;;;;;;;;;23.81;23.37;100653.56;5029953;28;840;-74
2022/02/05 12:31:53;;;;;;;;;;;;;;;24.64;21.88;100637.41;5030846;28;1489;-75
2022/02/05 12:34:19;;;;;;;;;;;;;;;25.10;21.27;100658.53;5030531;28;1977;-75
2022/02/05 12:36:49;;;;;;;;;;;;;;;24.07;22.63;100638.00;5029995;28;1565;-75
2022/02/05 12:39:16;;;;;;;;;;;;;;;26.05;21.31;100646.50;5030572;28;723;-74
2022/02/05 12:41:47;;;;;;;;;;;;;;;24.57;21.85;100638.28;5030305;28;1495;-77
2022/02/05 12:44:13;;;;;;;;;;;;;;;25.01;21.16;100644.09;5030216;28;2264;-75
2022/02/05 12:46:45;;;;;;;;;;;;;;;24.60;21.81;100636.13;5030380;28;1706;-75
2022/02/05 12:49:17;;;;;;;;;;;;;;;26.32;20.60;100642.59;5029077;28;1568;-75
2022/02/05 12:51:44;;;;;;;;;;;;;;;23.61;22.51;100647.16;5030619;28;974;-76
2022/02/05 12:54:12;;;;;;;;;;;;;;;24.76;21.18;100646.78;5029731;28;1910;-74
2022/02/05 12:56:39;;;;;;;;;;;;;;;24.60;20.28;100630.56;5030283;28;1507;-74
2022/02/05 12:59:10;;;;;;;;;;;;;;;24.00;21.43;100642.72;5030514;28;1498;-75
2022/02/05 13:01:38;;;;;;;;;;;;;;;23.34;21.31;100634.19;5030610;28;983;-75
2022/02/05 13:04:12;;;;;;;;;;;;;;;24.17;20.50;100643.09;5029844;28;1517;-75
2022/02/05 13:06:39;;;;;;;;;;;;;;;25.17;19.50;100659.34;5030240;28;1581;-75
2022/02/05 13:09:17;;;;;;;;;;;;;;;24.84;20.28;100646.53;5030209;28;1505;-74
2022/02/05 13:11:44;;;;;;;;;;;;;;;23.50;21.60;100643.97;5031899;28;1643;-75
2022/02/05 13:14:10;;;;;;;;;;;;;;;24.18;21.26;100651.19;5047879;28;1906;-73
2022/02/05 13:16:37;;;;;;;;;;;;;;;24.06;21.70;100650.16;5010806;28;806;-73
2022/02/05 13:19:19;;;;;;;;;;;;;;;25.82;20.06;100646.28;5013416;28;1499;-73
2022/02/05 13:25:24;;;;;;;;;;;;;;;24.49;21.18;100655.19;4947022;28;1540;-73
2022/02/05 13:28:00;;;;;;;;;;;;;;;23.90;22.09;100660.63;5027756;28;1284;-76
2022/02/05 13:35:57;;;;;;;;;;;;;;;23.29;22.90;100669.94;5030894;28;1288;-74
2022/02/05 13:38:26;;;;;;;;;;;;;;;24.58;20.75;100656.59;5033196;28;1581;-75
2022/02/05 13:40:59;;;;;;;;;;;;;;;24.30;20.79;100658.84;5033368;28;1501;-73
2022/02/05 13:43:39;;;;;;;;;;;;;;;24.42;21.35;100665.44;5033355;28;1393;-74
2022/02/05 13:46:12;;;;;;;;;;;;;;;25.48;20.40;100668.81;5033193;28;979;-75
2022/02/05 13:48:38;;;;;;;;;;;;;;;25.11;20.89;100676.03;5033561;28;939;-74
2022/02/05 13:51:05;;;;;;;;;;;;;;;25.28;20.40;100668.03;5031925;28;1425;-74
2022/02/05 13:53:33;;;;;;;;;;;;;;;23.70;21.62;100670.81;5031972;28;1906;-74
2022/02/05 13:56:04;;;;;;;;;;;;;;;24.97;20.62;100681.66;5032001;28;928;-75
2022/02/05 13:58:37;;;;;;;;;;;;;;;23.77;22.02;100674.47;5032436;28;1010;-74
2022/02/05 14:01:03;;;;;;;;;;;;;;;24.03;21.61;100676.38;5032339;28;1477;-76
2022/02/05 14:03:32;;;;;;;;;;;;;;;24.58;20.99;100695.44;5031996;28;1385;-75
2022/02/05 14:06:00;;;;;;;;;;;;;;;24.53;21.47;100681.41;5033467;28;1050;-75
2022/02/05 14:08:27;;;;;;;;;;;;;;;24.06;21.76;100686.19;5033409;28;936;-73
2022/02/05 14:10:55;;;;;;;;;;;;;;;24.15;21.37;100673.81;5033349;28;935;-75
2022/02/05 14:13:22;;;;;;;;;;;;;;;24.19;21.30;100683.41;5033187;28;1910;-76
2022/02/05 14:15:53;;;;;;;;;;;;;;;26.38;19.70;100697.31;5031699;28;1142;-75
2022/02/05 14:18:19;;;;;;;;;;;;;;;23.94;21.54;100694.31;5033256;28;951;-76
2022/02/05 14:20:49;;;;;;;;;;;;;;;24.73;21.25;100691.59;5033085;28;848;-74
2022/02/05 14:23:18;;;;;;;;;;;;;;;23.49;22.27;100702.34;5032774;28;1282;-76
2022/02/05 14:25:54;;;;;;;;;;;;;;;23.79;21.60;100705.56;5033190;28;967;-76
2022/02/05 14:28:30;;;;;;;;;;;;;;;24.02;22.01;100704.31;5031887;28;1050;-77
2022/02/05 14:31:05;;;;;;;;;;;;;;;24.29;21.24;100691.28;5031828;28;856;-73
2022/02/05 14:33:42;;;;;;;;;;;;;;;23.87;22.27;100698.97;5032353;28;1981;-74
2022/02/05 14:36:33;;;;;;;;;;;;;;;24.54;20.98;100694.19;5014740;28;907;-74
2022/02/05 14:41:44;;;;;;;;;;;;;;;25.29;20.20;100691.97;5032647;28;1031;-75
2022/02/05 14:44:12;;;;;;;;;;;;;;;25.50;20.16;100697.19;5032448;28;1384;-73